Wilmot, WI

6:04 AM CST on January 31, 2015 (GMT -0600)
KWITWINL3 | Change Station
CLOSE
Current Station
Personal Weather Station
Location: Twin Lakes, WI
Elevation: 863 ft
Nearby Weather Stations
Active Advisory: Winter Storm Warning

Elev 863 ft 42.51 °N, 88.23 °W | Updated 3 seconds ago

Mostly Cloudy
Mostly Cloudy
25.6 °F
Feels Like 19 °F
N
5.4
Wind Variable Wind from SW
Gusts 8.9 mph

Today
High -- | Low -- °F
--% Chance of Precip.
Yesterday
High -- | Low -- °F
Precip. -- in
7:08 AM 5:05 PM
Waxing Gibbous, 89% visible
Pressure 30.19 in
Visibility 10.0 miles
Clouds Overcast 4300 ft
Windchill 19 °F
Dew Point 5 °F
Humidity 41%
Rainfall 0.00 in
Snow Depth Not available.
UV 0 out of 12
Pollen .10 out of 12
Air Quality Not available.
Flu Activity Not available.
METAR KBUU 311135Z AUTO 19005KT 10SM OVC043 M06/M08 A3019 RMK AO2 T10561081

More Conditions Fewer Conditions

Pressure 30.19 in
Visibility 10.0 miles
Clouds Overcast 4300 ft
Windchill 19 °F
Dew Point 5 °F
Humidity 41%
Rainfall 0.00 in
Snow Depth Not available.
UV 0 out of 12
Pollen .10 out of 12
Air Quality Not available.
Flu Activity Not available.
METAR KBUU 311135Z AUTO 19005KT 10SM OVC043 M06/M08 A3019 RMK AO2 T10561081

More Conditions Fewer Conditions

10-Day Weather Forecast

Almanac

Astronomy

Jan. 31, 2015 Rise Set
Actual Time
Civil Twilight
Nautical Twilight
Astronomical Twilight
Moon
Length of Visible Light
Length of Day
Tomorrow will be .
, % of the Moon is Illuminated

Today's Extremes

State Highs State Lows

Community

WunderPhotos

Upload Photos

1,792,036 photos uploaded!

WunderBlogs® & News

Nearby

Air Quality

  Air Quality AQ Index Pollutant
Not available.

Snow Depth

Station Depth Elevation

Earthquake Activity

City Distance Mag. Time & Date
Minimum magnitude displayed is 2.5.

Coastal Water Temperatures

Place Temperature

Nearby Weather Stations